Time;durP1;ratioP1;P1;durP2;ratioP2;P2;SDS_P1;SDS_P2;PMS_P1;PMS_P2;Temp;Humidity;BMP_temperature;BMP_pressure;BME280_temperature;BME280_humidity;BME280_pressure;Samples;Min_cycle;Max_cycle;Signal;HPM_P1;HPM_P2
2022/05/13 00:00:26;;;;;;;;;1.33;1.00;;;;;;;;5059865;28;46254;-76
2022/05/13 00:02:51;;;;;;;;;1.00;1.00;;;;;;;;5059033;28;45379;-75
2022/05/13 00:05:17;;;;;;;;;2.00;2.00;;;;;;;;5063564;28;45444;-76
2022/05/13 00:07:42;;;;;;;;;1.00;1.00;;;;;;;;5052741;28;45794;-76
2022/05/13 00:10:07;;;;;;;;;2.00;1.00;;;;;;;;5060096;28;45218;-76
2022/05/13 00:12:35;;;;;;;;;1.67;1.00;;;;;;;;5056665;28;45292;-76
2022/05/13 00:15:00;;;;;;;;;1.33;1.33;;;;;;;;5058899;28;45360;-76
2022/05/13 00:17:26;;;;;;;;;3.00;1.67;;;;;;;;5057772;28;45494;-76
2022/05/13 00:19:51;;;;;;;;;6.00;1.00;;;;;;;;5060192;28;46059;-76
2022/05/13 00:22:18;;;;;;;;;1.67;1.67;;;;;;;;5051479;28;45249;-76
2022/05/13 00:24:44;;;;;;;;;0.00;0.00;;;;;;;;5060184;28;45359;-76
2022/05/13 00:27:10;;;;;;;;;3.00;2.00;;;;;;;;5050997;28;46449;-76
2022/05/13 00:29:35;;;;;;;;;2.67;2.00;;;;;;;;5058204;28;48261;-76
2022/05/13 00:32:01;;;;;;;;;1.67;1.67;;;;;;;;5055371;28;45414;-76
2022/05/13 00:34:26;;;;;;;;;1.67;1.33;;;;;;;;5060258;28;45277;-76
2022/05/13 00:36:51;;;;;;;;;1.00;0.67;;;;;;;;5054095;28;45214;-76
2022/05/13 00:39:17;;;;;;;;;4.33;2.00;;;;;;;;5060320;28;45372;-76
2022/05/13 00:41:42;;;;;;;;;2.00;1.00;;;;;;;;5056831;28;45301;-76
2022/05/13 00:44:07;;;;;;;;;2.33;1.00;;;;;;;;5062959;28;45208;-76
2022/05/13 00:46:32;;;;;;;;;2.00;1.00;;;;;;;;5052409;28;46054;-76
2022/05/13 00:48:59;;;;;;;;;0.33;0.33;;;;;;;;5060052;28;45393;-76
2022/05/13 00:51:29;;;;;;;;;2.00;1.00;;;;;;;;5083812;27;45948;-76
2022/05/13 00:53:55;;;;;;;;;1.67;1.33;;;;;;;;5058375;28;45456;-77
2022/05/13 00:56:21;;;;;;;;;1.00;1.00;;;;;;;;5053299;28;47179;-77
2022/05/13 00:58:47;;;;;;;;;1.67;1.67;;;;;;;;5059383;28;45178;-76
2022/05/13 01:01:14;;;;;;;;;1.00;1.00;;;;;;;;5055680;28;45348;-76
2022/05/13 01:03:39;;;;;;;;;1.33;1.33;;;;;;;;5058997;28;45366;-76
2022/05/13 01:06:06;;;;;;;;;1.33;0.67;;;;;;;;5055541;28;46027;-76
2022/05/13 01:08:32;;;;;;;;;2.33;2.00;;;;;;;;5057595;28;45325;-76
2022/05/13 01:10:58;;;;;;;;;2.33;1.00;;;;;;;;5057571;28;45511;-77
2022/05/13 01:13:28;;;;;;;;;4.00;2.00;;;;;;;;5058146;28;45180;-76
2022/05/13 01:15:53;;;;;;;;;1.00;1.00;;;;;;;;5058002;28;45244;-76
2022/05/13 01:18:26;;;;;;;;;1.00;1.00;;;;;;;;5059167;28;46647;-76
2022/05/13 01:20:52;;;;;;;;;1.00;1.00;;;;;;;;5059294;28;45453;-76
2022/05/13 01:23:21;;;;;;;;;2.00;2.00;;;;;;;;5054237;28;45202;-76
2022/05/13 01:25:51;;;;;;;;;1.00;1.00;;;;;;;;5056570;28;46654;-76
2022/05/13 01:28:22;;;;;;;;;1.00;1.00;;;;;;;;5058161;28;47387;-76
2022/05/13 01:30:49;;;;;;;;;0.67;0.67;;;;;;;;5057562;28;45399;-76
2022/05/13 01:33:15;;;;;;;;;0.33;0.33;;;;;;;;5053414;28;45266;-76
2022/05/13 01:35:42;;;;;;;;;2.00;0.33;;;;;;;;5057074;28;45361;-76
2022/05/13 01:38:07;;;;;;;;;3.25;1.00;;;;;;;;5054954;28;46267;-76
2022/05/13 01:40:33;;;;;;;;;1.25;1.25;;;;;;;;5058441;28;45236;-76
2022/05/13 01:42:58;;;;;;;;;2.50;1.50;;;;;;;;5051823;28;45579;-76
2022/05/13 01:45:23;;;;;;;;;1.00;1.00;;;;;;;;5056300;28;45431;-76
2022/05/13 01:47:48;;;;;;;;;1.75;1.00;;;;;;;;5052807;28;46342;-76
2022/05/13 01:50:14;;;;;;;;;2.00;2.00;;;;;;;;5059417;28;45509;-76
2022/05/13 01:52:39;;;;;;;;;1.67;0.67;;;;;;;;5054357;28;46008;-76
2022/05/13 01:55:04;;;;;;;;;3.25;2.00;;;;;;;;5059330;28;45439;-76
2022/05/13 01:57:30;;;;;;;;;2.00;0.50;;;;;;;;5053025;28;45288;-76
2022/05/13 01:59:55;;;;;;;;;1.75;1.50;;;;;;;;5061767;28;45605;-76
2022/05/13 02:02:20;;;;;;;;;1.00;1.00;;;;;;;;5057323;28;45380;-76
2022/05/13 02:04:45;;;;;;;;;3.00;2.00;;;;;;;;5054890;28;45268;-76
2022/05/13 02:07:11;;;;;;;;;2.25;2.00;;;;;;;;5054567;28;46283;-76
2022/05/13 02:09:36;;;;;;;;;2.25;1.25;;;;;;;;5057298;28;45310;-75
2022/05/13 02:12:01;;;;;;;;;1.00;0.67;;;;;;;;5056792;28;45349;-75
2022/05/13 02:14:27;;;;;;;;;2.25;1.00;;;;;;;;5058919;28;45517;-76
2022/05/13 02:16:52;;;;;;;;;3.00;2.00;;;;;;;;5053759;28;46312;-76
2022/05/13 02:19:17;;;;;;;;;1.25;1.25;;;;;;;;5053696;28;45306;-76
2022/05/13 02:21:42;;;;;;;;;2.50;2.50;;;;;;;;5055065;28;46184;-76
2022/05/13 02:24:08;;;;;;;;;1.25;1.25;;;;;;;;5053864;28;45385;-76
2022/05/13 02:26:33;;;;;;;;;2.75;1.00;;;;;;;;5053404;28;46107;-76
2022/05/13 02:29:01;;;;;;;;;2.00;2.00;;;;;;;;5059123;28;45430;-76
2022/05/13 02:31:30;;;;;;;;;2.00;2.00;;;;;;;;5055814;28;45305;-76
2022/05/13 02:33:55;;;;;;;;;3.00;3.00;;;;;;;;5054059;28;45450;-76
2022/05/13 02:36:21;;;;;;;;;4.25;3.00;;;;;;;;5053656;28;46349;-76
2022/05/13 02:38:46;;;;;;;;;5.25;4.00;;;;;;;;5060562;28;45429;-76
2022/05/13 02:41:11;;;;;;;;;2.00;2.00;;;;;;;;5055997;28;45296;-76
2022/05/13 02:43:37;;;;;;;;;1.00;1.00;;;;;;;;5056339;28;45612;-76
2022/05/13 02:46:03;;;;;;;;;4.50;2.00;;;;;;;;5054354;28;47546;-76
2022/05/13 02:48:28;;;;;;;;;2.00;2.00;;;;;;;;5054637;28;45395;-76
2022/05/13 02:50:53;;;;;;;;;2.00;2.00;;;;;;;;5055896;28;45406;-76
2022/05/13 02:53:19;;;;;;;;;2.50;1.50;;;;;;;;5058000;28;45424;-76
2022/05/13 02:55:44;;;;;;;;;3.00;2.00;;;;;;;;5056534;28;45275;-76
2022/05/13 02:58:09;;;;;;;;;2.00;1.00;;;;;;;;5053956;28;45379;-76
2022/05/13 03:00:35;;;;;;;;;3.00;2.00;;;;;;;;5057580;28;45710;-76
2022/05/13 03:03:00;;;;;;;;;2.75;2.00;;;;;;;;5050561;28;45396;-76
2022/05/13 03:05:25;;;;;;;;;4.00;2.00;;;;;;;;5057913;28;46216;-77
2022/05/13 03:07:51;;;;;;;;;2.75;2.75;;;;;;;;5052187;28;45284;-76
2022/05/13 03:10:17;;;;;;;;;1.25;1.25;;;;;;;;5058611;28;45202;-75
2022/05/13 03:12:42;;;;;;;;;2.75;2.00;;;;;;;;5055359;28;45414;-75
2022/05/13 03:15:08;;;;;;;;;2.75;2.50;;;;;;;;5060566;28;46463;-76
2022/05/13 03:17:34;;;;;;;;;2.00;2.00;;;;;;;;5051100;28;45198;-75
2022/05/13 03:20:00;;;;;;;;;2.00;2.00;;;;;;;;5063032;28;45291;-75
2022/05/13 03:22:25;;;;;;;;;2.25;2.00;;;;;;;;5050302;28;46291;-75
2022/05/13 03:24:51;;;;;;;;;4.75;4.00;;;;;;;;5061776;28;45969;-74
2022/05/13 03:27:16;;;;;;;;;6.00;4.00;;;;;;;;5053602;28;46034;-75
2022/05/13 03:29:41;;;;;;;;;6.00;4.50;;;;;;;;5057480;28;45487;-75
2022/05/13 03:32:07;;;;;;;;;8.75;6.75;;;;;;;;5053069;28;45587;-74
2022/05/13 03:34:33;;;;;;;;;9.00;5.75;;;;;;;;5061160;28;45288;-75
2022/05/13 03:36:58;;;;;;;;;8.25;7.00;;;;;;;;5054929;28;45261;-75
2022/05/13 03:39:23;;;;;;;;;7.75;7.00;;;;;;;;5061651;28;45342;-73
2022/05/13 03:41:49;;;;;;;;;7.00;7.00;;;;;;;;5054965;28;45257;-75
2022/05/13 03:44:14;;;;;;;;;7.25;7.25;;;;;;;;5061327;28;45360;-73
2022/05/13 03:46:40;;;;;;;;;8.25;8.00;;;;;;;;5054820;28;45834;-74
2022/05/13 03:49:05;;;;;;;;;11.00;10.25;;;;;;;;5060975;28;45228;-73
2022/05/13 03:51:30;;;;;;;;;10.25;7.75;;;;;;;;5056402;28;45513;-74
2022/05/13 03:53:55;;;;;;;;;12.25;8.00;;;;;;;;5062903;28;45167;-75
2022/05/13 03:56:21;;;;;;;;;8.25;7.75;;;;;;;;5057976;28;45610;-73
2022/05/13 03:58:46;;;;;;;;;8.00;8.00;;;;;;;;5054515;28;45241;-73
2022/05/13 04:01:11;;;;;;;;;10.50;6.75;;;;;;;;5057274;28;46969;-73
2022/05/13 04:03:36;;;;;;;;;7.75;7.75;;;;;;;;5055650;28;45539;-74
2022/05/13 04:08:58;;;;;;;;;9.25;7.00;;;;;;;;5048495;28;45417;-75
2022/05/13 04:11:31;;;;;;;;;7.00;7.00;;;;;;;;5057184;28;45483;-74
2022/05/13 04:16:41;;;;;;;;;7.75;5.00;;;;;;;;5056917;28;45502;-75
2022/05/13 04:19:06;;;;;;;;;6.00;4.50;;;;;;;;5053464;28;45493;-75
2022/05/13 04:21:34;;;;;;;;;6.25;3.00;;;;;;;;5058240;28;45694;-75
2022/05/13 04:24:00;;;;;;;;;4.00;3.00;;;;;;;;5053873;28;46667;-75
2022/05/13 04:26:26;;;;;;;;;5.50;3.75;;;;;;;;5054460;28;45465;-75
2022/05/13 04:28:52;;;;;;;;;4.25;4.25;;;;;;;;5054330;28;45471;-75
2022/05/13 04:31:20;;;;;;;;;5.25;3.75;;;;;;;;5055692;28;45367;-75
2022/05/13 04:33:45;;;;;;;;;6.25;5.00;;;;;;;;5060728;28;45554;-75
2022/05/13 04:36:11;;;;;;;;;5.50;5.50;;;;;;;;5058819;28;45146;-75
2022/05/13 04:38:36;;;;;;;;;6.00;4.50;;;;;;;;5057728;28;45579;-75
2022/05/13 04:42:49;;;;;;;;;5.25;4.50;;;;;;;;5056352;28;45163;-76
2022/05/13 04:43:47;;;;;;;;;4.25;4.00;;;;;;;;5057786;28;45382;-75
2022/05/13 04:46:13;;;;;;;;;2.00;2.00;;;;;;;;5054151;28;45415;-75
2022/05/13 04:48:38;;;;;;;;;3.75;3.00;;;;;;;;5057611;28;45298;-75
2022/05/13 04:51:03;;;;;;;;;2.50;2.50;;;;;;;;5057429;28;45399;-75
2022/05/13 04:53:30;;;;;;;;;5.75;4.25;;;;;;;;5057543;28;46046;-75
2022/05/13 04:55:56;;;;;;;;;5.00;4.50;;;;;;;;5058398;28;45315;-75
2022/05/13 04:58:25;;;;;;;;;3.25;3.00;;;;;;;;5051284;28;45474;-76
2022/05/13 05:00:51;;;;;;;;;4.25;4.25;;;;;;;;5058144;28;45205;-76
2022/05/13 05:03:17;;;;;;;;;4.75;4.00;;;;;;;;5053455;28;46503;-75
2022/05/13 05:05:43;;;;;;;;;3.75;2.50;;;;;;;;5058083;28;45226;-75
2022/05/13 05:08:08;;;;;;;;;5.00;3.75;;;;;;;;5056378;28;45325;-75
2022/05/13 05:10:33;;;;;;;;;4.25;4.00;;;;;;;;5059235;28;45198;-75
2022/05/13 05:12:58;;;;;;;;;3.00;3.00;;;;;;;;5057783;28;45315;-75
2022/05/13 05:15:24;;;;;;;;;3.00;3.00;;;;;;;;5059035;28;46375;-75
2022/05/13 05:17:50;;;;;;;;;3.50;3.50;;;;;;;;5049217;28;45367;-75
2022/05/13 05:20:16;;;;;;;;;5.00;3.50;;;;;;;;5060042;28;45306;-75
2022/05/13 05:22:44;;;;;;;;;3.50;3.00;;;;;;;;5048774;28;47510;-74
2022/05/13 05:25:09;;;;;;;;;4.25;3.25;;;;;;;;5060002;28;45264;-75
2022/05/13 05:27:36;;;;;;;;;4.75;4.50;;;;;;;;5051749;28;45366;-75
2022/05/13 05:30:03;;;;;;;;;3.00;3.00;;;;;;;;5049452;28;45430;-75
2022/05/13 05:32:28;;;;;;;;;5.00;3.00;;;;;;;;5051047;28;46071;-76
2022/05/13 05:34:53;;;;;;;;;4.25;4.25;;;;;;;;5059580;28;45349;-75
2022/05/13 05:37:18;;;;;;;;;2.75;2.75;;;;;;;;5052644;28;45350;-75
2022/05/13 05:39:44;;;;;;;;;5.25;3.00;;;;;;;;5059643;28;45221;-74
2022/05/13 05:42:09;;;;;;;;;4.25;2.75;;;;;;;;5052866;28;45399;-74
2022/05/13 05:44:34;;;;;;;;;6.25;3.25;;;;;;;;5059020;28;45243;-73
2022/05/13 05:46:59;;;;;;;;;2.50;2.50;;;;;;;;5052748;28;45438;-73
2022/05/13 05:49:25;;;;;;;;;5.50;3.00;;;;;;;;5059291;28;45311;-73
2022/05/13 05:51:50;;;;;;;;;3.00;3.00;;;;;;;;5055526;28;46291;-73
2022/05/13 05:57:14;;;;;;;;;6.25;4.50;;;;;;;;5053804;28;45402;-73
2022/05/13 05:59:40;;;;;;;;;4.00;4.00;;;;;;;;5055626;28;45543;-72
2022/05/13 06:02:06;;;;;;;;;6.25;5.25;;;;;;;;5054017;28;46360;-72
2022/05/13 06:04:31;;;;;;;;;3.75;3.00;;;;;;;;5056244;28;45419;-72
2022/05/13 06:06:56;;;;;;;;;5.00;3.00;;;;;;;;5050944;28;45346;-73
2022/05/13 06:09:21;;;;;;;;;5.75;4.00;;;;;;;;5049419;28;45363;-73
2022/05/13 06:11:46;;;;;;;;;3.75;3.75;;;;;;;;5055931;28;45202;-73
2022/05/13 06:14:12;;;;;;;;;6.00;3.00;;;;;;;;5058406;28;45226;-74
2022/05/13 06:16:37;;;;;;;;;4.75;3.25;;;;;;;;5056132;28;45254;-74
2022/05/13 06:19:03;;;;;;;;;3.75;3.75;;;;;;;;5057799;28;45514;-74
2022/05/13 06:21:29;;;;;;;;;8.00;4.00;;;;;;;;5055872;28;45345;-74
2022/05/13 06:23:54;;;;;;;;;3.25;3.25;;;;;;;;5058287;28;45232;-73
2022/05/13 06:26:20;;;;;;;;;4.00;4.00;;;;;;;;5054101;28;45529;-73
2022/05/13 06:28:46;;;;;;;;;4.00;4.00;;;;;;;;5056975;28;45343;-74
2022/05/13 06:31:11;;;;;;;;;5.75;3.50;;;;;;;;5056257;28;45471;-74
2022/05/13 06:33:36;;;;;;;;;5.75;5.00;;;;;;;;5057806;28;45253;-73
2022/05/13 06:36:02;;;;;;;;;4.75;4.75;;;;;;;;5048011;28;45301;-74
2022/05/13 06:38:27;;;;;;;;;6.00;4.75;;;;;;;;5058014;28;45518;-74
2022/05/13 06:40:53;;;;;;;;;3.50;3.00;;;;;;;;5055987;28;46127;-73
2022/05/13 06:43:18;;;;;;;;;6.75;3.00;;;;;;;;5057055;28;45323;-74
2022/05/13 06:45:44;;;;;;;;;5.50;3.00;;;;;;;;5055719;28;45434;-73
2022/05/13 06:48:09;;;;;;;;;4.00;4.00;;;;;;;;5046515;28;45351;-71
2022/05/13 06:50:35;;;;;;;;;8.75;6.50;;;;;;;;5057234;28;45546;-71
2022/05/13 06:53:00;;;;;;;;;2.00;2.00;;;;;;;;5060493;28;45304;-72
2022/05/13 06:55:25;;;;;;;;;3.00;3.00;;;;;;;;5062015;28;45258;-72
2022/05/13 06:57:51;;;;;;;;;5.00;3.00;;;;;;;;5056399;28;45367;-73
2022/05/13 07:00:16;;;;;;;;;4.33;4.00;;;;;;;;5062006;28;45620;-74
2022/05/13 07:02:41;;;;;;;;;7.00;3.67;;;;;;;;5052446;28;45419;-73
2022/05/13 07:05:09;;;;;;;;;4.00;2.67;;;;;;;;5060188;28;45295;-72
2022/05/13 07:07:35;;;;;;;;;2.67;2.67;;;;;;;;5053736;28;45985;-71
2022/05/13 07:10:00;;;;;;;;;3.00;3.00;;;;;;;;5060077;28;45645;-74
2022/05/13 07:12:26;;;;;;;;;2.67;2.33;;;;;;;;5057292;28;45312;-73
2022/05/13 07:14:53;;;;;;;;;2.00;2.00;;;;;;;;5061796;28;45398;-71
2022/05/13 07:17:19;;;;;;;;;2.67;1.00;;;;;;;;5059361;28;45437;-76
2022/05/13 07:19:44;;;;;;;;;4.67;2.67;;;;;;;;5061507;28;46825;-77
2022/05/13 07:22:09;;;;;;;;;3.67;1.00;;;;;;;;5055069;28;45367;-76
2022/05/13 07:24:34;;;;;;;;;2.00;2.00;;;;;;;;5059911;28;45438;-75
2022/05/13 07:27:00;;;;;;;;;4.33;3.00;;;;;;;;5054924;28;45458;-77
2022/05/13 07:29:25;;;;;;;;;1.33;1.33;;;;;;;;5058039;28;48316;-77
2022/05/13 07:31:50;;;;;;;;;4.00;3.00;;;;;;;;5053048;28;45607;-76
2022/05/13 07:34:16;;;;;;;;;3.33;2.00;;;;;;;;5058951;28;45373;-76
2022/05/13 07:36:41;;;;;;;;;1.00;1.00;;;;;;;;5054727;28;45367;-80
2022/05/13 07:41:50;;;;;;;;;2.67;1.33;;;;;;;;5054806;28;45219;-78
2022/05/13 07:44:16;;;;;;;;;4.00;3.00;;;;;;;;5061313;28;45257;-78
2022/05/13 07:46:41;;;;;;;;;0.67;0.67;;;;;;;;5054936;28;45241;-77
2022/05/13 07:49:07;;;;;;;;;2.33;2.33;;;;;;;;5060908;28;47204;-74
2022/05/13 07:51:32;;;;;;;;;1.67;1.00;;;;;;;;5059764;28;45363;-79
2022/05/13 07:53:57;;;;;;;;;2.00;1.67;;;;;;;;5061793;28;45387;-76
2022/05/13 07:56:23;;;;;;;;;4.00;2.00;;;;;;;;5056111;28;45376;-78
2022/05/13 07:58:49;;;;;;;;;7.00;2.33;;;;;;;;5056325;28;45228;-76
2022/05/13 08:01:14;;;;;;;;;2.00;2.00;;;;;;;;5054263;28;45277;-80
2022/05/13 08:03:41;;;;;;;;;3.00;3.00;;;;;;;;5056559;28;45398;-77
2022/05/13 08:06:08;;;;;;;;;4.67;2.00;;;;;;;;5056758;28;45359;-77
2022/05/13 08:08:36;;;;;;;;;1.33;1.33;;;;;;;;5058495;28;46120;-79
2022/05/13 08:11:02;;;;;;;;;5.00;2.67;;;;;;;;5059030;28;45651;-78
2022/05/13 08:13:32;;;;;;;;;5.00;2.00;;;;;;;;5056304;28;45359;-76
2022/05/13 08:15:58;;;;;;;;;2.00;1.67;;;;;;;;5058786;28;45345;-77
2022/05/13 08:18:23;;;;;;;;;2.00;2.00;;;;;;;;5052476;28;47077;-76
2022/05/13 08:20:49;;;;;;;;;1.00;1.00;;;;;;;;5057389;28;45594;-73
2022/05/13 08:23:14;;;;;;;;;4.67;2.33;;;;;;;;5056241;28;45339;-75
2022/05/13 08:25:40;;;;;;;;;4.00;2.00;;;;;;;;5059936;28;45264;-75
2022/05/13 08:28:06;;;;;;;;;1.00;1.00;;;;;;;;5059253;28;48194;-77
2022/05/13 08:30:31;;;;;;;;;4.00;2.33;;;;;;;;5061259;28;45249;-75
2022/05/13 08:32:57;;;;;;;;;4.33;3.00;;;;;;;;5060435;28;45284;-76
2022/05/13 08:35:22;;;;;;;;;1.33;1.33;;;;;;;;5060364;28;45548;-76
2022/05/13 08:37:49;;;;;;;;;4.00;1.00;;;;;;;;5052229;28;46365;-75
2022/05/13 08:40:35;;;;;;;;;0.67;0.67;;;;;;;;5060611;28;45386;-74
2022/05/13 08:43:03;;;;;;;;;1.00;1.00;;;;;;;;5033532;28;45340;-71
2022/05/13 08:45:29;;;;;;;;;3.67;2.00;;;;;;;;5058721;28;45529;-76
2022/05/13 08:47:56;;;;;;;;;1.00;1.00;;;;;;;;5053195;28;45641;-78
2022/05/13 08:50:24;;;;;;;;;2.67;0.67;;;;;;;;5060074;28;45343;-75
2022/05/13 08:53:08;;;;;;;;;2.00;1.00;;;;;;;;5055020;28;45474;-73
2022/05/13 08:55:42;;;;;;;;;0.00;0.00;;;;;;;;5042661;28;45436;-72
2022/05/13 08:58:11;;;;;;;;;0.25;0.00;;;;;;;;5050123;28;47207;-72
2022/05/13 09:00:39;;;;;;;;;0.50;0.00;;;;;;;;5058551;28;45434;-72
2022/05/13 09:03:13;;;;;;;;;0.00;0.00;;;;;;;;5053808;28;45461;-73
2022/05/13 09:05:48;;;;;;;;;0.75;0.75;;;;;;;;5058786;28;45466;-72
2022/05/13 09:08:14;;;;;;;;;1.50;0.00;;;;;;;;5057720;28;46202;-73
2022/05/13 09:10:49;;;;;;;;;0.00;0.00;;;;;;;;5060234;28;45422;-73
2022/05/13 09:13:21;;;;;;;;;0.00;0.00;;;;;;;;5058598;28;45367;-73
2022/05/13 09:15:52;;;;;;;;;0.00;0.00;;;;;;;;5057731;28;45551;-73
2022/05/13 09:18:22;;;;;;;;;3.75;3.75;;;;;;;;5058457;28;45501;-74
2022/05/13 09:20:47;;;;;;;;;1.00;1.00;;;;;;;;5055740;28;46051;-71
2022/05/13 09:23:13;;;;;;;;;0.50;0.25;;;;;;;;5058370;28;45394;-77
2022/05/13 09:25:51;;;;;;;;;0.00;0.00;;;;;;;;5059007;28;45623;-78
2022/05/13 09:28:17;;;;;;;;;0.50;0.50;;;;;;;;5055484;28;46396;-79
2022/05/13 09:30:44;;;;;;;;;0.50;0.50;;;;;;;;5058214;28;45331;-77
2022/05/13 09:33:25;;;;;;;;;1.75;0.75;;;;;;;;5054727;28;45342;-77
2022/05/13 09:35:54;;;;;;;;;1.75;1.00;;;;;;;;5057594;28;45332;-77
2022/05/13 09:38:24;;;;;;;;;1.00;1.00;;;;;;;;5057833;28;47599;-76
2022/05/13 09:40:57;;;;;;;;;0.00;0.00;;;;;;;;5055640;28;45463;-76
2022/05/13 09:43:36;;;;;;;;;2.00;0.25;;;;;;;;5054627;28;45479;-76
2022/05/13 09:46:04;;;;;;;;;0.75;0.75;;;;;;;;5046656;28;45258;-76
2022/05/13 09:48:30;;;;;;;;;3.00;2.00;;;;;;;;5058262;28;45367;-76
2022/05/13 09:50:59;;;;;;;;;1.00;1.00;;;;;;;;5059933;28;45669;-75
2022/05/13 09:53:24;;;;;;;;;1.25;0.25;;;;;;;;5055608;28;45463;-75
2022/05/13 09:55:50;;;;;;;;;0.25;0.25;;;;;;;;5057044;28;45429;-77
2022/05/13 09:58:23;;;;;;;;;1.50;0.50;;;;;;;;5051441;28;45343;-71
2022/05/13 10:00:51;;;;;;;;;0.80;0.80;;;;;;;;5056877;28;45349;-71
2022/05/13 10:03:18;;;;;;;;;1.00;1.00;;;;;;;;5054281;28;45406;-71
2022/05/13 10:05:44;;;;;;;;;0.25;0.25;;;;;;;;5057833;28;45571;-71
2022/05/13 10:08:14;;;;;;;;;2.00;0.75;;;;;;;;5055424;28;46348;-71
2022/05/13 10:16:09;;;;;;;;;0.25;0.25;;;;;;;;5056765;28;45272;-71
2022/05/13 10:18:37;;;;;;;;;2.00;0.75;;;;;;;;5057021;28;46982;-71
2022/05/13 10:21:08;;;;;;;;;0.00;0.00;;;;;;;;5056830;28;45421;-70
2022/05/13 10:23:40;;;;;;;;;0.00;0.00;;;;;;;;5047865;28;45393;-71
2022/05/13 10:26:08;;;;;;;;;1.00;0.25;;;;;;;;5057272;28;45427;-71
2022/05/13 10:28:37;;;;;;;;;2.00;0.50;;;;;;;;5058212;28;48625;-70
2022/05/13 10:31:05;;;;;;;;;0.60;0.00;;;;;;;;5055610;28;45150;-70
2022/05/13 10:33:42;;;;;;;;;1.25;0.75;;;;;;;;5054250;28;45353;-70
2022/05/13 10:36:20;;;;;;;;;2.00;0.75;;;;;;;;5056015;28;45281;-72
2022/05/13 10:39:07;;;;;;;;;1.40;0.00;;;;;;;;5056046;28;45555;-71
2022/05/13 10:41:36;;;;;;;;;0.00;0.00;;;;;;;;5052233;28;45428;-71
2022/05/13 10:44:10;;;;;;;;;1.50;0.25;;;;;;;;5058559;28;45369;-71
2022/05/13 10:46:39;;;;;;;;;1.80;0.60;;;;;;;;5051868;28;45519;-71
2022/05/13 10:49:04;;;;;;;;;0.80;0.80;;;;;;;;5057044;28;46304;-70
2022/05/13 10:51:42;;;;;;;;;2.50;1.00;;;;;;;;5082242;27;45394;-71
2022/05/13 10:54:07;;;;;;;;;0.20;0.20;;;;;;;;5066051;28;45336;-70
2022/05/13 10:56:37;;;;;;;;;0.25;0.00;;;;;;;;5051628;28;46186;-70
2022/05/13 10:59:03;;;;;;;;;1.00;1.00;;;;;;;;5049782;28;45355;-70
2022/05/13 11:01:46;;;;;;;;;1.25;0.00;;;;;;;;5054380;28;45443;-71
2022/05/13 11:04:30;;;;;;;;;1.50;0.75;;;;;;;;5058598;28;45404;-71
2022/05/13 11:06:55;;;;;;;;;2.00;1.00;;;;;;;;5052129;28;47339;-71
2022/05/13 11:09:29;;;;;;;;;4.00;1.00;;;;;;;;5051471;28;45495;-71
2022/05/13 11:12:01;;;;;;;;;1.40;0.00;;;;;;;;5052960;28;45320;-71
2022/05/13 11:14:27;;;;;;;;;0.00;0.00;;;;;;;;5053233;28;45292;-71
2022/05/13 11:17:02;;;;;;;;;0.25;0.25;;;;;;;;5053756;28;45549;-70
2022/05/13 11:19:39;;;;;;;;;0.00;0.00;;;;;;;;5054174;28;45434;-69
2022/05/13 11:22:04;;;;;;;;;1.00;1.00;;;;;;;;5052497;28;45327;-71
2022/05/13 11:27:28;;;;;;;;;2.40;0.80;;;;;;;;5049612;28;45492;-70
2022/05/13 11:29:59;;;;;;;;;0.20;0.20;;;;;;;;5058232;28;45296;-70
2022/05/13 11:32:28;;;;;;;;;0.00;0.00;;;;;;;;5051091;28;47587;-69
2022/05/13 11:34:53;;;;;;;;;0.60;0.60;;;;;;;;5056603;28;45402;-70
2022/05/13 11:37:20;;;;;;;;;1.25;1.25;;;;;;;;5052762;28;46435;-69
2022/05/13 11:40:03;;;;;;;;;1.40;1.40;;;;;;;;5059723;28;46255;-69
2022/05/13 11:42:28;;;;;;;;;3.20;0.60;;;;;;;;5053328;28;46041;-68
2022/05/13 11:45:16;;;;;;;;;1.50;1.50;;;;;;;;5055514;28;45304;-69
2022/05/13 11:47:58;;;;;;;;;1.60;1.60;;;;;;;;5054506;28;45225;-71
2022/05/13 11:50:25;;;;;;;;;3.60;1.00;;;;;;;;5086909;27;47513;-70
2022/05/13 11:52:53;;;;;;;;;2.60;0.80;;;;;;;;5054903;28;45459;-69
2022/05/13 11:55:19;;;;;;;;;2.60;1.00;;;;;;;;5058051;28;45326;-69
2022/05/13 11:57:51;;;;;;;;;0.25;0.25;;;;;;;;5057805;28;45258;-69
2022/05/13 12:00:36;;;;;;;;;1.00;1.00;;;;;;;;5043413;28;46244;-69
2022/05/13 12:03:04;;;;;;;;;1.00;1.00;;;;;;;;5058194;28;45450;-69
2022/05/13 12:05:31;;;;;;;;;1.00;1.00;;;;;;;;5061422;28;45313;-69
2022/05/13 12:08:12;;;;;;;;;0.80;0.80;;;;;;;;5056455;28;45672;-70
2022/05/13 12:10:37;;;;;;;;;1.20;1.20;;;;;;;;5067699;28;47575;-70
2022/05/13 12:13:07;;;;;;;;;2.50;1.50;;;;;;;;5059362;28;45343;-71
2022/05/13 12:15:45;;;;;;;;;1.00;0.00;;;;;;;;5059751;28;45318;-70
2022/05/13 12:18:29;;;;;;;;;0.40;0.20;;;;;;;;5052016;28;45370;-71
2022/05/13 12:21:13;;;;;;;;;1.00;1.00;;;;;;;;5058296;28;46496;-66
2022/05/13 12:23:48;;;;;;;;;2.00;1.80;;;;;;;;5057292;28;45390;-66
2022/05/13 12:26:14;;;;;;;;;8.75;8.00;;;;;;;;5057306;28;45418;-66
2022/05/13 12:28:48;;;;;;;;;15.75;14.50;;;;;;;;5055119;28;45718;-66
2022/05/13 12:31:37;;;;;;;;;2.40;2.20;;;;;;;;5057426;28;46356;-66
2022/05/13 12:39:44;;;;;;;;;0.80;0.80;;;;;;;;5052735;28;45351;-66
2022/05/13 12:42:11;;;;;;;;;2.20;0.80;;;;;;;;5051271;28;45335;-67
2022/05/13 12:44:41;;;;;;;;;0.00;0.00;;;;;;;;5059110;28;45313;-66
2022/05/13 12:47:13;;;;;;;;;1.00;0.60;;;;;;;;5056536;28;45917;-66
2022/05/13 12:49:57;;;;;;;;;1.40;1.00;;;;;;;;5060010;28;45541;-68
2022/05/13 12:52:33;;;;;;;;;1.20;1.20;;;;;;;;5056588;28;45641;-68
2022/05/13 12:55:07;;;;;;;;;0.60;0.60;;;;;;;;5056447;28;45340;-67
2022/05/13 12:57:49;;;;;;;;;1.00;1.00;;;;;;;;5050742;28;45593;-67
2022/05/13 13:00:19;;;;;;;;;1.00;1.00;;;;;;;;5058178;28;45513;-67
2022/05/13 13:02:47;;;;;;;;;0.00;0.00;;;;;;;;5056951;28;45919;-67
2022/05/13 13:05:17;;;;;;;;;0.40;0.40;;;;;;;;5060055;28;45300;-68
2022/05/13 13:07:42;;;;;;;;;0.20;0.20;;;;;;;;5049520;28;45336;-67
2022/05/13 13:10:10;;;;;;;;;4.00;0.00;;;;;;;;5060302;28;45439;-68
2022/05/13 13:12:40;;;;;;;;;1.00;1.00;;;;;;;;5049849;28;46137;-68
2022/05/13 13:15:05;;;;;;;;;1.80;1.80;;;;;;;;5046893;28;45592;-68
2022/05/13 13:17:35;;;;;;;;;0.50;0.50;;;;;;;;5050635;28;48183;-68
2022/05/13 13:20:02;;;;;;;;;0.40;0.40;;;;;;;;5047075;28;45482;-68
2022/05/13 13:22:31;;;;;;;;;0.20;0.20;;;;;;;;5054234;28;45469;-68
2022/05/13 13:24:57;;;;;;;;;0.20;0.20;;;;;;;;5058938;28;45516;-68
2022/05/13 13:27:26;;;;;;;;;0.00;0.00;;;;;;;;5053377;28;45392;-68
2022/05/13 13:29:51;;;;;;;;;1.40;1.40;;;;;;;;5059677;28;45332;-68
2022/05/13 13:32:21;;;;;;;;;1.75;0.00;;;;;;;;5050380;28;48338;-68
2022/05/13 13:34:54;;;;;;;;;1.40;1.00;;;;;;;;5059517;28;45487;-68
2022/05/13 13:37:21;;;;;;;;;0.00;0.00;;;;;;;;5053173;28;45274;-68
2022/05/13 13:39:46;;;;;;;;;0.60;0.00;;;;;;;;5059268;28;45454;-68
2022/05/13 13:42:13;;;;;;;;;1.00;1.00;;;;;;;;5052964;28;45364;-67
2022/05/13 13:44:39;;;;;;;;;0.40;0.40;;;;;;;;5059352;28;45532;-68
2022/05/13 13:47:07;;;;;;;;;1.20;0.20;;;;;;;;5052982;28;45365;-68
2022/05/13 13:49:35;;;;;;;;;1.00;1.00;;;;;;;;5059176;28;45461;-68
2022/05/13 13:52:02;;;;;;;;;0.80;0.80;;;;;;;;5055741;28;47294;-68
2022/05/13 13:54:36;;;;;;;;;0.00;0.00;;;;;;;;5055121;28;46595;-68
2022/05/13 13:57:20;;;;;;;;;1.00;0.00;;;;;;;;5058022;28;45439;-68
2022/05/13 13:59:48;;;;;;;;;0.00;0.00;;;;;;;;5055677;28;45498;-68
2022/05/13 14:02:28;;;;;;;;;0.80;0.80;;;;;;;;5055008;28;47032;-68
2022/05/13 14:04:54;;;;;;;;;0.80;0.80;;;;;;;;5056541;28;45482;-68
2022/05/13 14:07:19;;;;;;;;;1.75;1.75;;;;;;;;5056044;28;45208;-68
2022/05/13 14:09:45;;;;;;;;;1.00;1.00;;;;;;;;5058007;28;45177;-67
2022/05/13 14:12:20;;;;;;;;;0.00;0.00;;;;;;;;5052612;28;46252;-68
2022/05/13 14:14:48;;;;;;;;;0.00;0.00;;;;;;;;5055398;28;45311;-68
2022/05/13 14:17:17;;;;;;;;;0.40;0.20;;;;;;;;5052193;28;45598;-68
2022/05/13 14:19:46;;;;;;;;;0.80;0.80;;;;;;;;5056066;28;45336;-68
2022/05/13 14:22:11;;;;;;;;;1.60;1.40;;;;;;;;5055869;28;45411;-68
2022/05/13 14:24:41;;;;;;;;;0.00;0.00;;;;;;;;5058115;28;45290;-68
2022/05/13 14:27:25;;;;;;;;;0.00;0.00;;;;;;;;5056739;28;45351;-68
2022/05/13 14:29:56;;;;;;;;;0.20;0.20;;;;;;;;5058546;28;45521;-67
2022/05/13 14:32:21;;;;;;;;;1.80;1.80;;;;;;;;5051869;28;45571;-68
2022/05/13 14:35:03;;;;;;;;;0.75;0.75;;;;;;;;5057286;28;45557;-68
2022/05/13 14:37:40;;;;;;;;;0.00;0.00;;;;;;;;5050409;28;45359;-68
2022/05/13 14:40:17;;;;;;;;;0.60;0.60;;;;;;;;5056706;28;46171;-67
2022/05/13 14:42:48;;;;;;;;;0.00;0.00;;;;;;;;5051233;28;46376;-68
2022/05/13 14:45:20;;;;;;;;;0.20;0.20;;;;;;;;5056629;28;45776;-68
2022/05/13 14:47:46;;;;;;;;;1.00;0.00;;;;;;;;5053399;28;45672;-67
2022/05/13 14:50:11;;;;;;;;;0.00;0.00;;;;;;;;5058027;28;45304;-68
2022/05/13 14:52:42;;;;;;;;;0.00;0.00;;;;;;;;5055624;28;45395;-67
2022/05/13 14:55:14;;;;;;;;;0.40;0.40;;;;;;;;5057925;28;45429;-67
2022/05/13 14:57:42;;;;;;;;;0.20;0.20;;;;;;;;5055908;28;45597;-67
2022/05/13 15:00:11;;;;;;;;;0.20;0.20;;;;;;;;5057748;28;45644;-67
2022/05/13 15:02:38;;;;;;;;;1.00;0.00;;;;;;;;5055346;28;46021;-67
2022/05/13 15:05:09;;;;;;;;;0.60;0.60;;;;;;;;5057830;28;45316;-67
2022/05/13 15:07:39;;;;;;;;;0.80;0.00;;;;;;;;5055922;28;45602;-68
2022/05/13 15:10:10;;;;;;;;;0.80;0.60;;;;;;;;5058035;28;45439;-67
2022/05/13 15:12:35;;;;;;;;;1.00;1.00;;;;;;;;5058155;28;45982;-67